Time;durP1;ratioP1;P1;durP2;ratioP2;P2;SDS_P1;SDS_P2;PMS_P1;PMS_P2;Temp;Humidity;BMP_temperature;BMP_pressure;BME280_temperature;BME280_humidity;BME280_pressure;Samples;Min_cycle;Max_cycle;Signal;HPM_P1;HPM_P2
2023/03/25 07:38:08;;;;;;;2.23;1.70;;;10.30;99.90;11.20;100065.00;;;;5121579;27;20563;-72
2023/03/25 07:40:34;;;;;;;0.40;0.40;;;10.10;99.90;12.10;100055.00;;;;5103140;28;20192;-72
2023/03/25 07:43:04;;;;;;;5.23;2.00;;;10.20;99.90;10.70;100058.00;;;;5102469;28;20192;-72
2023/03/25 07:45:35;;;;;;;2.03;1.20;;;10.00;99.90;11.50;100089.00;;;;5102910;28;20182;-72
2023/03/25 07:48:04;;;;;;;13.67;5.60;;;10.10;99.90;10.40;100075.00;;;;5085569;28;20211;-72
2023/03/25 07:50:33;;;;;;;2.43;0.83;;;10.00;99.90;11.00;100080.00;;;;5104389;28;20266;-72
2023/03/25 07:52:59;;;;;;;4.87;1.57;;;10.00;99.90;11.40;100077.00;;;;5103594;28;20173;-72
2023/03/25 07:55:32;;;;;;;7.93;2.43;;;10.10;99.90;11.40;100096.00;;;;5103912;28;20195;-72
2023/03/25 07:58:01;;;;;;;0.43;0.43;;;10.20;99.90;11.90;100102.00;;;;5102225;28;20313;-72
2023/03/25 08:00:31;;;;;;;0.20;0.20;;;10.40;99.90;12.50;100100.00;;;;5102440;28;20188;-72
2023/03/25 08:02:58;;;;;;;0.30;0.30;;;10.50;99.90;12.70;100121.00;;;;5102582;28;20176;-72
2023/03/25 08:05:24;;;;;;;1.83;1.63;;;10.80;99.90;11.80;100096.00;;;;5102313;28;20199;-72
2023/03/25 08:07:54;;;;;;;2.10;1.20;;;10.60;99.90;11.60;100109.00;;;;5101509;28;20200;-72
2023/03/25 08:10:20;;;;;;;2.87;1.67;;;10.60;99.90;12.20;100114.00;;;;5102336;28;20188;-72
2023/03/25 08:12:48;;;;;;;2.13;0.80;;;10.70;99.90;11.70;100094.00;;;;5077273;28;20195;-72
2023/03/25 08:15:16;;;;;;;1.70;0.73;;;10.60;99.90;11.70;100119.00;;;;5100295;28;20191;-72
2023/03/25 08:17:42;;;;;;;2.93;0.97;;;10.60;99.90;10.90;100110.00;;;;5102629;28;20212;-73
2023/03/25 08:20:10;;;;;;;0.20;0.20;;;10.40;99.90;11.80;100086.00;;;;5102231;28;20187;-73
2023/03/25 08:22:36;;;;;;;1.07;0.70;;;10.20;99.90;10.90;100105.00;;;;5104000;28;20186;-72
2023/03/25 08:25:03;;;;;;;0.23;0.23;;;10.10;99.90;11.30;100108.00;;;;5103913;28;20307;-72
2023/03/25 08:27:29;;;;;;;24.00;3.07;;;10.00;99.90;11.10;100098.00;;;;5103925;28;20195;-73
2023/03/25 08:29:56;;;;;;;11.80;3.97;;;9.90;99.90;10.70;100065.00;;;;5102527;28;20202;-71
2023/03/25 08:32:23;;;;;;;0.70;0.50;;;9.70;99.90;10.80;100091.00;;;;5103724;28;20188;-71
2023/03/25 08:34:52;;;;;;;5.87;2.40;;;9.70;99.90;11.10;100081.00;;;;5102506;28;20622;-71
2023/03/25 08:37:18;;;;;;;0.30;0.30;;;9.70;99.90;11.00;100078.00;;;;5103726;28;20280;-71
2023/03/25 08:39:45;;;;;;;27.57;2.27;;;9.60;99.90;11.20;100085.00;;;;5102512;28;20182;-71
2023/03/25 08:42:12;;;;;;;3.53;1.23;;;9.80;99.90;11.00;100107.00;;;;5103524;28;20564;-71
2023/03/25 08:44:38;;;;;;;1.40;1.30;;;9.90;99.90;10.90;100107.00;;;;5103061;28;20190;-71
2023/03/25 08:47:05;;;;;;;3.37;1.60;;;9.90;99.90;11.30;100101.00;;;;5102048;28;20282;-71
2023/03/25 08:49:31;;;;;;;4.33;1.47;;;10.00;99.90;11.50;100097.00;;;;5087383;28;20193;-71
2023/03/25 08:51:59;;;;;;;0.93;0.87;;;10.20;99.90;11.40;100113.00;;;;5089726;28;20189;-72
2023/03/25 08:54:26;;;;;;;9.03;3.97;;;10.30;99.90;10.80;100107.00;;;;5088259;28;20314;-72
2023/03/25 08:56:52;;;;;;;14.53;2.10;;;10.30;99.90;11.70;100121.00;;;;5071433;28;21372;-70
2023/03/25 08:59:18;;;;;;;11.50;2.67;;;10.50;99.90;11.90;100084.00;;;;5088188;28;20184;-71
2023/03/25 09:01:44;;;;;;;0.70;0.70;;;10.70;99.90;11.30;100115.00;;;;5087972;28;20185;-71
2023/03/25 09:04:11;;;;;;;2.93;0.83;;;10.60;99.90;12.00;100126.00;;;;5071057;28;20188;-71
2023/03/25 09:06:38;;;;;;;13.87;2.63;;;10.80;99.90;11.70;100131.00;;;;5087898;28;20193;-71
2023/03/25 09:09:05;;;;;;;5.30;1.13;;;10.80;99.90;11.60;100136.00;;;;5088016;28;20637;-71
2023/03/25 09:11:32;;;;;;;1.20;0.80;;;10.80;99.90;11.80;100107.00;;;;5088072;28;20195;-71
2023/03/25 09:14:03;;;;;;;9.53;2.23;;;10.80;99.90;11.40;100150.00;;;;5087905;28;20305;-70
2023/03/25 09:16:31;;;;;;;8.30;2.63;;;10.80;99.90;11.60;100132.00;;;;5087697;28;20338;-72
2023/03/25 09:18:58;;;;;;;4.83;1.20;;;10.80;99.90;11.70;100135.00;;;;5071091;28;20189;-72
2023/03/25 09:21:26;;;;;;;8.90;1.97;;;10.90;99.90;11.70;100099.00;;;;5071374;28;20193;-72
2023/03/25 09:24:01;;;;;;;3.73;1.20;;;11.00;99.90;12.10;100140.00;;;;5071502;28;20232;-72
2023/03/25 09:26:37;;;;;;;1.37;1.27;;;11.30;99.90;12.90;100138.00;;;;5086629;28;20187;-72
2023/03/25 09:29:28;;;;;;;7.43;2.20;;;11.70;99.90;13.40;100157.00;;;;5086943;28;20216;-72
2023/03/25 09:31:57;;;;;;;4.57;1.73;;;12.10;99.90;13.50;100171.00;;;;5071181;28;20205;-73
2023/03/25 09:34:23;;;;;;;11.77;1.83;;;12.20;99.90;13.30;100202.00;;;;5082420;28;20257;-73
2023/03/25 09:36:58;;;;;;;0.20;0.20;;;12.40;99.90;14.10;100190.00;;;;5077701;28;20221;-72
2023/03/25 09:39:27;;;;;;;8.73;2.10;;;12.40;99.90;13.40;100204.00;;;;5070329;28;20189;-73
2023/03/25 09:42:37;;;;;;;3.60;1.27;;;12.40;99.90;13.80;100214.00;;;;5087997;28;20191;-72
2023/03/25 09:45:39;;;;;;;5.87;1.63;;;12.40;99.90;13.50;100205.00;;;;5087560;28;20192;-73
2023/03/25 09:48:31;;;;;;;3.73;1.90;;;12.30;99.90;13.90;100224.00;;;;5087446;28;20215;-73
2023/03/25 09:51:31;;;;;;;3.00;0.77;;;12.60;99.90;13.70;100219.00;;;;5070119;28;20205;-73
2023/03/25 09:54:33;;;;;;;5.70;1.43;;;12.60;99.90;13.40;100215.00;;;;5089934;28;20646;-73
2023/03/25 09:57:06;;;;;;;4.80;1.90;;;12.50;99.90;14.10;100256.00;;;;5081219;28;20360;-73
2023/03/25 10:00:05;;;;;;;8.87;2.63;;;12.60;99.90;13.40;100233.00;;;;5086492;28;20187;-73
2023/03/25 10:02:40;;;;;;;38.60;1.90;;;12.40;99.90;13.90;100252.00;;;;5064870;28;20196;-73
2023/03/25 10:05:34;;;;;;;8.63;1.73;;;12.60;99.90;14.20;100250.00;;;;5088429;28;20260;-72
2023/03/25 10:08:25;;;;;;;6.80;1.80;;;12.60;99.90;14.80;100254.00;;;;5086762;28;20574;-72
2023/03/25 10:11:27;;;;;;;10.10;2.47;;;12.80;99.90;14.10;100239.00;;;;5086286;28;20197;-72
2023/03/25 10:14:20;;;;;;;2.07;1.70;;;12.60;99.90;13.60;100250.00;;;;5070469;28;20192;-73
2023/03/25 10:17:01;;;;;;;0.50;0.50;;;12.30;99.90;12.60;100231.00;;;;5069976;28;20205;-72
2023/03/25 10:19:36;;;;;;;3.30;1.43;;;11.90;99.90;12.90;100235.00;;;;5088565;28;20186;-73
2023/03/25 10:33:56;;;;;;;11.43;0.97;;;11.10;99.90;13.30;100186.00;;;;5089956;27;20937;-73
2023/03/25 10:36:33;;;;;;;1.97;0.57;;;11.70;99.90;12.80;100217.00;;;;5069192;28;20234;-73
2023/03/25 10:39:03;;;;;;;0.70;0.60;;;11.90;99.90;12.70;100222.00;;;;5067525;28;20214;-73
2023/03/25 10:41:39;;;;;;;3.60;1.67;;;11.90;99.90;13.10;100223.00;;;;5068920;28;20269;-73
2023/03/25 10:44:10;;;;;;;2.07;0.90;;;11.90;99.90;12.80;100191.00;;;;5068077;28;20629;-73
2023/03/25 10:46:49;;;;;;;19.07;3.40;;;11.70;99.90;11.50;100209.00;;;;5069539;28;20281;-73
2023/03/25 10:49:21;;;;;;;14.00;1.53;;;11.20;99.90;11.10;100150.00;;;;5082660;28;20195;-73
2023/03/25 10:51:53;;;;;;;2.87;1.20;;;10.70;99.90;11.10;100204.00;;;;5083421;28;20270;-73
2023/03/25 10:54:23;;;;;;;0.70;0.70;;;10.60;99.90;12.40;100170.00;;;;5068677;28;20190;-73
2023/03/25 10:56:52;;;;;;;6.40;1.80;;;10.60;99.90;12.40;100211.00;;;;5068023;28;20183;-74
2023/03/25 10:59:49;;;;;;;3.23;2.87;;;11.10;99.90;13.50;100217.00;;;;5068184;28;20198;-73
2023/03/25 11:02:27;;;;;;;5.53;1.13;;;11.60;99.90;13.00;100206.00;;;;5059552;28;20220;-73
2023/03/25 11:04:58;;;;;;;6.83;1.57;;;11.80;99.90;13.00;100226.00;;;;5068532;28;20187;-74
2023/03/25 11:08:04;;;;;;;9.47;1.60;;;11.90;99.90;12.60;100222.00;;;;5067102;28;20188;-74
2023/03/25 11:10:33;;;;;;;2.73;1.40;;;11.70;99.90;12.80;100212.00;;;;5046213;28;20201;-74
2023/03/25 11:13:06;;;;;;;4.43;0.77;;;11.70;99.90;12.20;100211.00;;;;5067408;28;20279;-73
2023/03/25 11:15:59;;;;;;;13.03;4.00;;;11.50;99.90;12.00;100197.00;;;;5052175;28;20646;-74
2023/03/25 11:18:43;;;;;;;8.53;2.00;;;11.30;99.90;12.20;100217.00;;;;5062880;28;20199;-74
2023/03/25 11:21:14;;;;;;;3.97;1.03;;;11.30;99.90;12.20;100196.00;;;;5057545;28;20284;-70
2023/03/25 11:23:47;;;;;;;5.20;1.67;;;11.30;99.90;12.20;100207.00;;;;5068112;28;20547;-75
2023/03/25 11:26:38;;;;;;;4.53;2.07;;;11.50;99.90;13.30;100209.00;;;;5051886;28;20192;-74
2023/03/25 11:29:25;;;;;;;14.80;2.43;;;12.00;99.90;12.60;100232.00;;;;5057268;28;20193;-74
2023/03/25 11:32:04;;;;;;;8.43;1.60;;;12.00;99.90;12.10;100214.00;;;;5084429;28;20299;-74
2023/03/25 11:34:40;;;;;;;9.50;2.17;;;11.50;99.90;12.60;100191.00;;;;5051834;28;20199;-74
2023/03/25 11:37:32;;;;;;;9.10;1.97;;;11.50;99.90;12.30;100216.00;;;;5066284;28;20189;-75
2023/03/25 11:40:19;;;;;;;7.67;1.73;;;11.40;99.90;12.70;100206.00;;;;5069218;28;20222;-75
2023/03/25 11:43:26;;;;;;;7.10;1.33;;;11.60;99.90;13.90;100214.00;;;;5065963;28;20184;-75
2023/03/25 11:46:17;;;;;;;6.53;1.63;;;12.10;99.90;13.50;100221.00;;;;5036986;28;20187;-75
2023/03/25 11:48:51;;;;;;;8.40;1.40;;;12.50;99.90;13.50;100233.00;;;;5030431;28;20789;-75
2023/03/25 11:51:27;;;;;;;6.23;1.63;;;12.50;99.90;13.40;100229.00;;;;5054445;28;20650;-75
2023/03/25 11:54:37;;;;;;;0.30;0.30;;;12.50;99.90;14.80;100223.00;;;;5054434;28;20185;-75
2023/03/25 11:57:19;;;;;;;5.63;1.27;;;12.80;99.90;14.10;100268.00;;;;5047519;28;20197;-76
2023/03/25 12:00:00;;;;;;;0.80;0.80;;;12.70;99.90;13.20;100250.00;;;;5047140;28;20182;-76
2023/03/25 12:02:36;;;;;;;13.43;4.73;;;12.20;99.90;12.20;100232.00;;;;5036897;28;20205;-75
2023/03/25 12:05:06;;;;;;;1.03;0.50;;;11.40;99.90;13.10;100216.00;;;;5046488;28;20208;-74
2023/03/25 12:07:49;;;;;;;1.00;0.93;;;11.30;99.90;13.90;100236.00;;;;5062113;28;20244;-74
2023/03/25 12:10:58;;;;;;;0.67;0.67;;;11.70;99.90;14.20;100239.00;;;;5068212;28;20186;-74
2023/03/25 12:14:06;;;;;;;0.77;0.77;;;12.30;99.90;14.20;100240.00;;;;5036730;28;20644;-74
2023/03/25 12:17:21;;;;;;;2.73;1.10;;;12.40;99.90;14.00;100242.00;;;;5054516;28;20571;-75
2023/03/25 12:20:07;;;;;;;12.73;3.00;;;12.40;99.90;13.70;100248.00;;;;5022699;28;20187;-75
2023/03/25 12:23:07;;;;;;;3.93;1.97;;;12.30;99.90;14.40;100225.00;;;;5053572;28;20203;-75
2023/03/25 12:26:00;;;;;;;3.00;1.40;;;12.60;99.90;14.20;100274.00;;;;5066991;28;20893;-75
2023/03/25 12:29:05;;;;;;;6.57;1.70;;;12.70;99.90;13.20;100228.00;;;;5046622;28;20269;-74
2023/03/25 12:31:54;;;;;;;5.13;0.90;;;12.40;99.90;13.50;100263.00;;;;5053590;28;20256;-74
2023/03/25 12:34:45;;;;;;;6.30;2.23;;;12.40;99.90;13.80;100268.00;;;;5053843;28;20201;-74
2023/03/25 12:37:50;;;;;;;13.33;1.80;;;12.60;99.90;14.20;100266.00;;;;5054478;28;20208;-74
2023/03/25 12:40:41;;;;;;;8.00;1.93;;;12.60;99.90;13.80;100289.00;;;;4972415;28;20193;-73
2023/03/25 12:44:08;;;;;;;8.23;1.70;;;12.80;99.90;14.20;100277.00;;;;5043709;28;20189;-73
2023/03/25 12:47:34;;;;;;;3.20;0.97;;;12.70;99.90;14.30;100277.00;;;;5037992;28;20670;-74
2023/03/25 12:50:18;;;;;;;10.07;1.60;;;12.90;99.90;13.80;100282.00;;;;5025963;28;20525;-74
2023/03/25 12:53:34;;;;;;;4.60;1.90;;;12.70;99.90;14.20;100291.00;;;;5052899;28;20208;-74
2023/03/25 12:56:31;;;;;;;9.10;2.67;;;12.70;99.90;13.70;100255.00;;;;5029686;28;20279;-73
2023/03/25 12:59:35;;;;;;;8.50;1.33;;;12.70;99.90;13.30;100285.00;;;;5047496;28;20250;-74
2023/03/25 13:02:30;;;;;;;10.53;2.23;;;12.50;99.90;14.10;100292.00;;;;5053270;28;20272;-74
2023/03/25 13:05:28;;;;;;;1.67;1.57;;;12.70;99.90;14.00;100257.00;;;;5054101;28;20268;-74
2023/03/25 13:08:11;;;;;;;8.20;1.70;;;12.60;99.90;14.00;100272.00;;;;5049748;28;20183;-74
2023/03/25 13:10:47;;;;;;;3.80;1.10;;;12.70;99.90;14.00;100288.00;;;;5035717;28;20591;-74
2023/03/25 13:13:24;;;;;;;4.20;0.70;;;12.70;99.90;13.90;100286.00;;;;5049743;28;20209;-74
2023/03/25 13:16:15;;;;;;;1.80;0.93;;;12.70;99.90;14.40;100305.00;;;;5061260;28;20552;-74
2023/03/25 13:19:01;;;;;;;13.63;2.20;;;12.80;99.90;14.10;100306.00;;;;5061372;28;20208;-74
2023/03/25 13:21:51;;;;;;;0.83;0.77;;;12.80;99.90;14.30;100303.00;;;;5063282;28;20199;-74
2023/03/25 13:24:48;;;;;;;8.13;2.17;;;12.80;99.90;14.40;100317.00;;;;5039271;28;20682;-74
2023/03/25 13:27:22;;;;;;;10.63;1.47;;;13.00;99.90;14.90;100287.00;;;;5056630;28;20203;-74
2023/03/25 13:29:57;;;;;;;9.83;2.07;;;13.50;99.90;14.10;100335.00;;;;5060109;28;20196;-74
2023/03/25 13:32:46;;;;;;;3.90;1.63;;;13.20;99.90;14.30;100318.00;;;;5059310;28;20217;-74
2023/03/25 13:35:21;;;;;;;5.20;2.53;;;13.10;99.90;14.90;100333.00;;;;5056014;28;20648;-74
2023/03/25 13:38:00;;;;;;;15.13;1.80;;;13.30;99.90;15.30;100334.00;;;;5060245;28;20250;-74
2023/03/25 13:40:42;;;;;;;7.30;1.80;;;13.70;99.90;14.00;100315.00;;;;5063769;28;20186;-74
2023/03/25 13:43:59;;;;;;;2.83;0.70;;;13.30;99.90;14.30;100320.00;;;;5062826;28;20202;-74
2023/03/25 13:46:44;;;;;;;4.60;1.27;;;13.20;99.90;14.50;100296.00;;;;5036504;28;20240;-74
2023/03/25 13:50:19;;;;;;;4.27;1.73;;;13.20;99.90;15.30;100326.00;;;;5063527;28;20309;-74
2023/03/25 13:52:59;;;;;;;5.83;0.90;;;13.60;99.90;15.70;100320.00;;;;4971867;28;20712;-74
2023/03/25 13:55:39;;;;;;;4.30;0.63;;;13.80;99.90;15.50;100332.00;;;;5035627;28;20691;-74
2023/03/25 13:58:24;;;;;;;27.10;2.63;;;13.90;99.90;14.80;100324.00;;;;5059245;28;20191;-74
2023/03/25 14:01:34;;;;;;;3.53;1.27;;;13.80;99.90;15.20;100313.00;;;;5058344;28;20190;-74
2023/03/25 14:04:36;;;;;;;2.23;1.10;;;13.80;99.90;14.60;100325.00;;;;5060749;28;20193;-74
2023/03/25 14:07:54;;;;;;;3.93;1.37;;;13.80;99.90;14.50;100325.00;;;;5056355;28;20218;-74
2023/03/25 14:10:41;;;;;;;3.63;1.00;;;13.70;99.90;15.50;100344.00;;;;5060535;28;20190;-74
2023/03/25 14:13:30;;;;;;;3.30;1.20;;;13.90;99.90;15.60;100336.00;;;;5058288;28;20716;-74
2023/03/25 14:16:11;;;;;;;3.27;1.13;;;14.10;99.90;15.90;100344.00;;;;5060459;28;20190;-74
2023/03/25 14:18:51;;;;;;;5.93;1.57;;;14.20;99.90;15.00;100362.00;;;;5059972;28;20236;-74
2023/03/25 14:21:21;;;;;;;3.33;1.90;;;14.00;99.90;14.90;100362.00;;;;5042564;28;20274;-75
2023/03/25 14:23:48;;;;;;;6.77;1.80;;;13.90;99.90;14.60;100335.00;;;;5060723;28;20211;-74
2023/03/25 14:26:18;;;;;;;12.33;2.57;;;13.60;99.90;14.60;100343.00;;;;5059521;28;20185;-74
2023/03/25 14:28:50;;;;;;;9.83;1.67;;;13.60;99.90;14.70;100353.00;;;;5059380;28;20285;-74
2023/03/25 14:31:21;;;;;;;3.93;1.37;;;13.60;99.90;14.70;100351.00;;;;5058915;28;20168;-74
2023/03/25 14:34:02;;;;;;;2.37;0.80;;;13.50;99.90;15.40;100362.00;;;;5059965;28;20713;-74
2023/03/25 14:36:41;;;;;;;5.60;0.97;;;13.70;99.90;14.80;100355.00;;;;5058546;28;20191;-74
2023/03/25 14:39:31;;;;;;;1.40;1.17;;;13.50;99.90;14.70;100358.00;;;;5058788;28;20276;-74
2023/03/25 14:42:02;;;;;;;1.70;0.87;;;13.40;99.90;15.30;100367.00;;;;5061189;28;20243;-74
2023/03/25 14:44:39;;;;;;;5.47;1.53;;;13.50;99.90;14.30;100358.00;;;;5060768;28;20179;-74
2023/03/25 14:47:21;;;;;;;7.43;2.03;;;13.30;99.90;14.30;100357.00;;;;5059521;28;20705;-74
2023/03/25 14:50:21;;;;;;;7.00;2.00;;;13.10;99.90;14.10;100348.00;;;;5060004;28;20201;-74
2023/03/25 14:52:51;;;;;;;2.10;0.90;;;13.00;99.90;14.70;100361.00;;;;5061476;28;20844;-74
2023/03/25 14:55:25;;;;;;;11.77;2.30;;;13.10;99.90;15.00;100359.00;;;;5058970;28;20193;-75
2023/03/25 14:58:19;;;;;;;8.63;2.40;;;13.30;99.90;15.20;100370.00;;;;5075979;28;20271;-75
2023/03/25 15:01:06;;;;;;;0.73;0.73;;;13.40;99.90;14.70;100319.00;;;;5052372;28;20198;-75
2023/03/25 15:04:12;;;;;;;0.73;0.73;;;13.30;99.90;15.30;100367.00;;;;5058813;28;20208;-75
2023/03/25 15:06:42;;;;;;;0.70;0.70;;;13.50;99.90;14.80;100380.00;;;;5060101;28;20205;-74
2023/03/25 15:09:12;;;;;;;3.33;1.00;;;13.40;99.90;14.80;100377.00;;;;5059249;28;20739;-74
2023/03/25 15:11:54;;;;;;;6.13;1.73;;;13.40;99.90;15.00;100383.00;;;;5059751;28;20210;-74
2023/03/25 15:14:30;;;;;;;3.80;0.93;;;13.50;99.90;14.90;100380.00;;;;5043360;28;20286;-74
2023/03/25 15:17:04;;;;;;;1.30;0.30;;;13.40;99.90;15.30;100377.00;;;;5059111;28;20178;-75
2023/03/25 15:20:07;;;;;;;4.27;1.83;;;13.50;99.90;14.50;100382.00;;;;5061434;28;20688;-75
2023/03/25 15:22:34;;;;;;;3.13;1.17;;;13.40;99.90;14.80;100386.00;;;;5064358;28;20288;-74
2023/03/25 15:25:02;;;;;;;2.67;1.70;;;13.30;99.90;14.40;100386.00;;;;5062342;28;20181;-75
2023/03/25 15:27:50;;;;;;;1.23;0.90;;;13.30;99.90;14.50;100388.00;;;;5064151;28;20183;-74
2023/03/25 15:31:15;;;;;;;10.47;1.50;;;13.40;99.90;14.80;100383.00;;;;5062734;28;20191;-75
2023/03/25 15:34:11;;;;;;;0.97;0.93;;;13.30;99.90;16.00;100389.00;;;;5061895;28;20189;-75
2023/03/25 15:37:17;;;;;;;10.60;2.03;;;13.60;99.90;14.30;100373.00;;;;5061720;28;20186;-75
2023/03/25 15:40:07;;;;;;;1.13;0.83;;;13.40;99.90;14.70;100356.00;;;;5064773;28;20232;-75
2023/03/25 15:42:58;;;;;;;4.83;1.17;;;13.20;99.90;14.90;100388.00;;;;5063634;28;20199;-74
2023/03/25 15:46:14;;;;;;;2.47;0.93;;;13.20;99.90;14.70;100389.00;;;;5063189;28;20198;-75
2023/03/25 15:49:14;;;;;;;8.50;1.23;;;13.40;99.90;15.50;100392.00;;;;5041317;28;20604;-75
2023/03/25 15:52:05;;;;;;;3.50;1.13;;;13.50;99.90;15.20;100390.00;;;;5062428;28;20657;-75
2023/03/25 15:54:56;;;;;;;6.07;1.80;;;13.40;99.90;14.50;100403.00;;;;5062459;28;20552;-75
2023/03/25 15:57:40;;;;;;;14.97;2.10;;;13.40;99.90;14.60;100344.00;;;;5079291;28;20216;-75
2023/03/25 16:00:25;;;;;;;6.77;2.33;;;13.40;99.90;14.30;100402.00;;;;5064475;28;20188;-75
2023/03/25 16:03:00;;;;;;;1.73;0.97;;;13.30;99.90;14.80;100399.00;;;;5062831;28;20212;-75
2023/03/25 16:05:29;;;;;;;2.00;0.83;;;13.30;99.90;15.20;100385.00;;;;5079172;28;20185;-75
2023/03/25 16:08:06;;;;;;;3.40;1.23;;;13.50;99.90;15.00;100413.00;;;;5063879;28;20183;-75
2023/03/25 16:10:43;;;;;;;6.53;1.97;;;13.40;99.90;14.50;100398.00;;;;5043838;28;20676;-75
2023/03/25 16:13:24;;;;;;;0.60;0.60;;;13.30;99.90;14.70;100427.00;;;;5061398;28;20574;-75
2023/03/25 16:15:56;;;;;;;0.43;0.43;;;13.20;99.90;14.40;100415.00;;;;5061438;28;20226;-75
2023/03/25 16:18:33;;;;;;;4.43;1.77;;;13.10;99.90;14.30;100404.00;;;;5063034;28;20188;-75
2023/03/25 16:21:22;;;;;;;9.83;0.57;;;13.00;99.90;14.90;100435.00;;;;5062324;28;20184;-75
2023/03/25 16:23:53;;;;;;;1.60;0.67;;;13.00;99.90;14.20;100390.00;;;;5061865;28;20181;-75
2023/03/25 16:26:47;;;;;;;6.27;1.60;;;13.00;99.90;14.20;100430.00;;;;5061973;28;20200;-75
2023/03/25 16:29:35;;;;;;;6.40;3.53;;;13.00;99.90;14.70;100440.00;;;;5057675;28;20556;-75
2023/03/25 16:32:15;;;;;;;9.07;2.30;;;13.10;99.90;14.30;100448.00;;;;5061579;28;20209;-75
2023/03/25 16:35:53;;;;;;;5.10;1.47;;;13.10;99.90;14.40;100449.00;;;;5060996;28;20195;-75
2023/03/25 16:38:29;;;;;;;9.97;1.70;;;13.10;99.90;14.50;100417.00;;;;5062481;28;20704;-74
2023/03/25 16:41:19;;;;;;;8.80;2.20;;;13.10;99.90;13.90;100439.00;;;;5061770;28;20223;-75
2023/03/25 16:44:23;;;;;;;6.40;2.77;;;12.90;99.90;14.40;100440.00;;;;5020407;28;20210;-74
2023/03/25 16:46:52;;;;;;;6.00;1.37;;;12.90;99.90;14.30;100436.00;;;;5003762;28;20288;-75
2023/03/25 16:49:29;;;;;;;6.77;2.03;;;12.80;99.90;14.00;100454.00;;;;5061808;28;20579;-75
2023/03/25 16:52:01;;;;;;;4.43;2.50;;;12.80;99.90;13.70;100452.00;;;;5061816;28;20201;-75
2023/03/25 16:54:35;;;;;;;1.40;1.03;;;12.60;99.90;14.40;100464.00;;;;5061065;28;20200;-74
2023/03/25 16:57:07;;;;;;;9.27;2.50;;;12.60;99.90;14.00;100466.00;;;;5060371;28;20188;-75
2023/03/25 16:59:36;;;;;;;11.30;2.40;;;12.60;99.90;13.50;100465.00;;;;5045373;28;20196;-75
2023/03/25 17:02:27;;;;;;;11.73;2.13;;;12.40;99.90;14.10;100471.00;;;;5062118;28;20266;-75
2023/03/25 17:04:54;;;;;;;6.33;1.90;;;12.50;99.90;13.80;100473.00;;;;5062080;28;20217;-75
2023/03/25 17:07:27;;;;;;;9.53;2.43;;;12.40;99.90;13.40;100463.00;;;;5061756;28;20539;-74
2023/03/25 17:09:59;;;;;;;0.30;0.30;;;12.40;99.90;13.70;100476.00;;;;5061022;28;20169;-75
2023/03/25 17:12:28;;;;;;;10.63;2.47;;;12.40;99.90;13.70;100414.00;;;;5060386;28;20224;-75
2023/03/25 17:15:05;;;;;;;4.70;2.37;;;12.40;99.90;13.80;100443.00;;;;5046183;28;20652;-75
2023/03/25 17:17:49;;;;;;;5.17;1.43;;;12.40;99.90;14.30;100486.00;;;;5060510;28;20651;-75
2023/03/25 17:20:33;;;;;;;5.77;2.63;;;12.50;99.90;14.20;100492.00;;;;5059133;28;20208;-75
2023/03/25 17:23:40;;;;;;;12.30;2.07;;;12.40;99.90;14.00;100495.00;;;;5061642;28;20184;-75
2023/03/25 17:26:09;;;;;;;10.73;1.70;;;12.20;99.90;13.60;100457.00;;;;5061679;28;20197;-74
2023/03/25 17:29:11;;;;;;;2.23;1.47;;;12.20;99.90;14.10;100504.00;;;;5060754;28;20268;-75
2023/03/25 17:32:17;;;;;;;6.83;1.80;;;12.40;99.90;13.90;100496.00;;;;5052359;28;20230;-75
2023/03/25 17:35:41;;;;;;;0.70;0.60;;;12.30;99.90;13.40;100502.00;;;;5058899;28;20199;-75
2023/03/25 17:38:46;;;;;;;9.23;2.27;;;12.20;99.90;13.50;100503.00;;;;5060461;28;20199;-74
2023/03/25 17:41:43;;;;;;;2.30;1.80;;;12.20;99.90;13.90;100480.00;;;;5056958;28;20208;-75
2023/03/25 17:45:06;;;;;;;3.13;1.77;;;12.20;99.90;13.70;100522.00;;;;5059491;28;20191;-74
2023/03/25 17:47:58;;;;;;;5.63;1.67;;;12.20;99.90;14.00;100518.00;;;;5043539;28;20219;-75
2023/03/25 17:50:31;;;;;;;9.30;2.83;;;12.20;99.90;14.00;100528.00;;;;5051050;28;20185;-75
2023/03/25 17:53:03;;;;;;;5.77;2.33;;;12.30;99.90;13.90;100514.00;;;;5052167;28;20613;-75
2023/03/25 17:55:34;;;;;;;0.83;0.83;;;12.20;99.90;13.70;100496.00;;;;5053214;28;20182;-75
2023/03/25 17:58:07;;;;;;;5.10;1.57;;;12.00;99.90;12.90;100498.00;;;;5051915;28;20552;-67
2023/03/25 18:00:34;;;;;;;1.70;0.83;;;11.80;99.90;13.10;100501.00;;;;5046527;28;20191;-73
2023/03/25 18:03:38;;;;;;;3.40;1.33;;;11.70;99.90;13.40;100487.00;;;;5053439;28;20264;-73
2023/03/25 18:06:50;;;;;;;9.43;1.83;;;11.70;99.90;13.30;100526.00;;;;5047139;28;20269;-73
2023/03/25 18:09:55;;;;;;;4.83;2.17;;;11.80;99.90;14.00;100522.00;;;;5051219;28;20229;-73
2023/03/25 18:12:59;;;;;;;12.13;2.80;;;11.80;99.90;13.80;100536.00;;;;5051947;28;20213;-73
2023/03/25 18:16:07;;;;;;;11.23;2.77;;;11.80;99.90;13.40;100527.00;;;;5058979;28;20661;-73
2023/03/25 18:18:59;;;;;;;7.20;3.03;;;11.90;99.90;13.00;100521.00;;;;5043880;28;20175;-72
2023/03/25 18:21:35;;;;;;;8.03;1.93;;;11.60;99.90;12.80;100530.00;;;;5050207;28;20660;-72
2023/03/25 18:24:16;;;;;;;3.90;1.77;;;11.60;99.90;13.10;100517.00;;;;5048498;28;20202;-72
2023/03/25 18:27:22;;;;;;;3.53;1.60;;;11.60;99.90;12.90;100511.00;;;;5068609;28;20193;-73
2023/03/25 18:30:09;;;;;;;1.47;1.47;;;11.50;99.90;12.40;100503.00;;;;5048131;28;20222;-73
2023/03/25 18:32:48;;;;;;;11.60;4.10;;;11.50;99.90;13.00;100523.00;;;;5047647;28;20217;-73
2023/03/25 18:35:24;;;;;;;10.43;3.43;;;11.60;99.90;12.80;100517.00;;;;5067954;28;20202;-73
2023/03/25 18:38:10;;;;;;;6.37;1.27;;;11.60;99.90;12.50;100492.00;;;;5067400;28;20175;-73
2023/03/25 18:40:59;;;;;;;0.73;0.73;;;11.40;99.90;13.20;100496.00;;;;5045950;28;20640;-72
2023/03/25 18:43:28;;;;;;;5.77;1.63;;;11.40;99.90;13.00;100516.00;;;;5010632;28;20569;-73
2023/03/25 18:46:32;;;;;;;11.93;3.03;;;11.40;99.90;12.70;100507.00;;;;5050990;28;20266;-73
2023/03/25 18:50:12;;;;;;;6.30;2.07;;;11.40;99.90;12.20;100513.00;;;;5043519;28;20550;-73
2023/03/25 18:52:58;;;;;;;0.33;0.33;;;11.20;99.90;12.60;100505.00;;;;5050847;28;20298;-73
2023/03/25 18:55:26;;;;;;;5.50;1.27;;;11.20;99.90;12.30;100518.00;;;;5038499;28;20202;-73
2023/03/25 18:57:56;;;;;;;9.33;3.00;;;11.10;99.90;12.40;100516.00;;;;5044003;28;20198;-73
2023/03/25 19:00:30;;;;;;;6.23;2.73;;;11.10;99.90;12.60;100515.00;;;;5038721;28;20199;-73
2023/03/25 19:03:04;;;;;;;3.20;1.33;;;11.10;99.90;12.20;100514.00;;;;5038104;28;20187;-73
2023/03/25 19:05:58;;;;;;;9.63;2.27;;;11.10;99.90;12.50;100518.00;;;;5055721;28;20193;-73
2023/03/25 19:09:07;;;;;;;0.53;0.53;;;11.20;99.90;12.10;100508.00;;;;5034852;28;20193;-73
2023/03/25 19:12:11;;;;;;;10.60;1.67;;;11.10;99.90;12.10;100502.00;;;;5048444;28;20190;-71
2023/03/25 19:15:19;;;;;;;0.80;0.80;;;10.90;99.90;13.20;100515.00;;;;5052479;28;20536;-72
2023/03/25 19:17:54;;;;;;;8.70;1.73;;;11.10;99.90;12.40;100519.00;;;;5043345;28;20821;-72
2023/03/25 19:20:24;;;;;;;3.23;1.53;;;11.00;99.90;11.70;100489.00;;;;5053340;28;20544;-72
2023/03/25 19:23:01;;;;;;;5.17;1.83;;;10.90;99.90;12.30;100513.00;;;;5051478;28;20199;-73
2023/03/25 19:25:51;;;;;;;7.13;2.10;;;11.00;99.90;12.80;100521.00;;;;5043521;28;20581;-73
2023/03/25 19:28:31;;;;;;;5.50;2.13;;;11.00;99.90;12.40;100490.00;;;;5062241;28;20192;-74
2023/03/25 19:31:34;;;;;;;3.33;1.53;;;11.00;99.90;12.70;100486.00;;;;5063589;28;20180;-73
2023/03/25 19:34:00;;;;;;;3.20;1.50;;;11.00;99.90;12.50;100513.00;;;;5062501;28;20193;-74
2023/03/25 19:36:33;;;;;;;5.20;2.57;;;10.90;99.90;12.10;100473.00;;;;5046995;28;20662;-74
2023/03/25 19:39:05;;;;;;;4.70;1.70;;;10.80;99.90;11.90;100501.00;;;;5050078;28;20196;-74
2023/03/25 19:41:40;;;;;;;3.00;1.13;;;10.80;99.90;12.00;100508.00;;;;5054641;28;20662;-73
2023/03/25 19:44:13;;;;;;;10.27;2.73;;;10.80;99.90;12.20;100499.00;;;;5053335;28;20604;-73